Time;durP1;ratioP1;P1;durP2;ratioP2;P2;SDS_P1;SDS_P2;PMS_P1;PMS_P2;Temp;Humidity;BMP_temperature;BMP_pressure;BME280_temperature;BME280_humidity;BME280_pressure;Samples;Min_cycle;Max_cycle;Signal;HPM_P1;HPM_P2
2021/04/07 00:02:08;;;;;;;462.17;157.45;;;5.30;77.40;;;;;;5092884;28;20019;-77
2021/04/07 00:04:35;;;;;;;157.93;59.30;;;5.30;77.50;;;;;;5086567;28;20052;-77
2021/04/07 00:07:01;;;;;;;76.32;31.90;;;5.20;77.70;;;;;;5092611;28;20024;-77
2021/04/07 00:09:27;;;;;;;141.60;65.05;;;5.20;78.00;;;;;;5093452;28;20561;-77
2021/04/07 00:11:53;;;;;;;91.97;47.35;;;5.10;78.10;;;;;;5094308;28;20091;-77
2021/04/07 00:14:19;;;;;;;66.13;32.60;;;5.20;78.40;;;;;;5092496;28;20028;-77
2021/04/07 00:16:49;;;;;;;40.58;23.30;;;5.20;79.20;;;;;;5094066;28;20027;-77
2021/04/07 00:19:16;;;;;;;39.05;21.10;;;5.10;78.70;;;;;;5079462;28;20021;-77
2021/04/07 00:21:41;;;;;;;36.25;20.20;;;5.10;79.00;;;;;;5093039;28;20370;-77
2021/04/07 00:24:07;;;;;;;29.10;14.60;;;5.10;79.20;;;;;;5093630;28;20027;-77
2021/04/07 00:26:36;;;;;;;31.63;15.65;;;5.10;79.40;;;;;;5093814;28;20016;-77
2021/04/07 00:29:03;;;;;;;29.73;14.93;;;5.10;79.70;;;;;;5093815;28;20047;-77
2021/04/07 00:31:29;;;;;;;30.00;14.32;;;5.10;79.70;;;;;;5092617;28;20024;-76
2021/04/07 00:33:55;;;;;;;32.70;16.17;;;5.10;79.90;;;;;;5094362;28;20415;-76
2021/04/07 00:36:20;;;;;;;31.27;15.32;;;5.10;80.20;;;;;;5092427;28;20031;-76
2021/04/07 00:38:46;;;;;;;30.83;15.93;;;5.10;80.30;;;;;;5093482;28;20020;-76
2021/04/07 00:41:12;;;;;;;35.70;16.52;;;5.10;80.40;;;;;;5079155;28;20031;-77
2021/04/07 00:43:38;;;;;;;29.42;15.13;;;5.10;80.60;;;;;;5091704;28;20035;-77
2021/04/07 00:46:04;;;;;;;32.03;16.35;;;5.10;80.70;;;;;;5092164;28;20543;-77
2021/04/07 00:48:30;;;;;;;30.83;16.08;;;5.20;80.80;;;;;;5091862;28;20438;-77
2021/04/07 00:50:56;;;;;;;22.52;11.90;;;5.20;80.90;;;;;;5091867;28;20028;-78
2021/04/07 00:53:22;;;;;;;20.02;10.07;;;5.20;80.90;;;;;;5079351;28;20016;-79
2021/04/07 00:55:48;;;;;;;22.77;11.82;;;5.10;80.80;;;;;;5093081;28;20028;-77
2021/04/07 00:58:15;;;;;;;45.00;16.42;;;5.10;81.00;;;;;;5093619;28;20016;-77
2021/04/07 01:00:41;;;;;;;62.90;22.95;;;5.10;81.20;;;;;;5092927;28;20027;-77
2021/04/07 01:03:07;;;;;;;47.92;16.00;;;5.10;81.30;;;;;;5093095;28;20504;-77
2021/04/07 01:05:34;;;;;;;41.20;15.00;;;5.10;81.60;;;;;;5088996;28;20466;-77
2021/04/07 01:08:00;;;;;;;48.95;18.40;;;5.20;82.00;;;;;;5080838;28;20351;-77
2021/04/07 01:10:26;;;;;;;51.47;22.15;;;5.20;81.90;;;;;;5091691;28;20507;-77
2021/04/07 01:12:53;;;;;;;72.07;26.10;;;5.20;81.90;;;;;;5092059;28;20048;-77
2021/04/07 01:15:19;;;;;;;44.63;18.73;;;5.30;81.80;;;;;;5092822;28;20024;-77
2021/04/07 01:17:45;;;;;;;25.92;11.32;;;5.20;81.80;;;;;;5078955;28;20515;-77
2021/04/07 01:20:13;;;;;;;24.58;12.23;;;5.20;81.70;;;;;;5091798;28;20030;-77
2021/04/07 01:22:40;;;;;;;18.27;9.55;;;5.20;82.20;;;;;;5088713;28;20070;-77
2021/04/07 01:25:10;;;;;;;17.80;9.70;;;5.20;82.20;;;;;;5080961;28;20047;-77
2021/04/07 01:27:39;;;;;;;21.67;10.57;;;5.20;82.00;;;;;;5077336;28;20028;-77
2021/04/07 01:30:12;;;;;;;16.95;8.98;;;5.20;82.20;;;;;;5084881;28;20513;-76
2021/04/07 01:32:38;;;;;;;15.85;9.40;;;5.10;82.50;;;;;;5073808;28;20070;-76
2021/04/07 01:35:10;;;;;;;14.52;8.93;;;5.10;82.80;;;;;;5091544;28;20037;-77
2021/04/07 01:37:36;;;;;;;15.90;9.68;;;5.10;82.90;;;;;;5091839;28;20158;-79
2021/04/07 01:40:12;;;;;;;20.63;9.40;;;5.20;83.60;;;;;;5085712;28;20021;-78
2021/04/07 01:42:39;;;;;;;16.30;9.80;;;5.20;83.80;;;;;;5085407;28;20020;-79
2021/04/07 01:45:06;;;;;;;22.05;9.85;;;5.30;83.60;;;;;;5093138;28;20032;-78
2021/04/07 01:47:33;;;;;;;22.67;10.50;;;5.30;83.90;;;;;;5094615;28;20150;-77
2021/04/07 01:50:00;;;;;;;23.15;11.10;;;5.40;84.00;;;;;;5092840;28;20020;-78
2021/04/07 01:52:28;;;;;;;24.42;11.65;;;5.40;84.00;;;;;;5096371;28;20016;-77
2021/04/07 01:54:54;;;;;;;20.20;11.15;;;5.50;84.10;;;;;;5096808;28;20030;-83
2021/04/07 01:57:20;;;;;;;20.80;12.40;;;5.50;84.10;;;;;;5095133;28;20529;-77
2021/04/07 01:59:46;;;;;;;20.38;11.25;;;5.60;83.80;;;;;;5096635;28;20095;-77
2021/04/07 02:02:12;;;;;;;23.90;12.00;;;5.70;83.90;;;;;;5094981;28;20055;-77
2021/04/07 02:04:37;;;;;;;24.83;11.77;;;5.70;83.60;;;;;;5096350;28;20442;-77
2021/04/07 02:07:11;;;;;;;18.92;11.85;;;5.70;83.90;;;;;;5095887;28;20521;-77
2021/04/07 02:09:37;;;;;;;25.05;13.05;;;5.70;84.00;;;;;;5095102;28;20099;-77
2021/04/07 02:12:03;;;;;;;23.13;12.40;;;5.70;83.90;;;;;;5095083;28;20119;-78
2021/04/07 02:14:29;;;;;;;23.52;12.15;;;5.70;84.00;;;;;;5082129;28;20016;-77
2021/04/07 02:16:57;;;;;;;25.63;13.15;;;5.80;84.00;;;;;;5083929;28;20039;-79
2021/04/07 02:19:23;;;;;;;24.77;13.90;;;5.80;84.00;;;;;;5079215;28;20016;-77
2021/04/07 02:22:13;;;;;;;27.23;14.20;;;5.80;84.10;;;;;;5096136;28;20024;-77
2021/04/07 02:24:44;;;;;;;31.25;13.75;;;5.80;84.20;;;;;;5094431;28;20347;-76
2021/04/07 02:27:19;;;;;;;30.17;13.88;;;5.80;84.20;;;;;;5094608;28;20035;-77
2021/04/07 02:29:47;;;;;;;23.00;12.93;;;5.90;84.30;;;;;;5094510;28;20027;-77
2021/04/07 02:32:13;;;;;;;21.15;12.05;;;5.90;84.10;;;;;;5094723;28;20024;-77
2021/04/07 02:34:40;;;;;;;27.10;14.02;;;6.00;83.80;;;;;;5094333;28;20051;-77
2021/04/07 02:37:06;;;;;;;27.27;14.75;;;6.00;83.60;;;;;;5094359;28;20369;-77
2021/04/07 02:39:32;;;;;;;28.52;13.88;;;5.90;83.40;;;;;;5095750;28;20020;-77
2021/04/07 02:41:58;;;;;;;35.42;18.40;;;5.80;83.40;;;;;;5094578;28;20027;-77
2021/04/07 02:44:23;;;;;;;29.65;16.13;;;5.70;83.60;;;;;;5095709;28;20093;-77
2021/04/07 02:46:49;;;;;;;26.27;13.40;;;5.70;83.90;;;;;;5095410;28;20446;-77
2021/04/07 02:49:15;;;;;;;27.40;15.13;;;5.70;84.20;;;;;;5094204;28;20031;-77
2021/04/07 02:51:41;;;;;;;26.08;15.18;;;5.70;84.30;;;;;;5095290;28;20031;-78
2021/04/07 02:54:07;;;;;;;28.52;16.67;;;5.70;84.40;;;;;;5094587;28;20024;-77
2021/04/07 02:56:33;;;;;;;25.95;14.65;;;5.70;84.60;;;;;;5083761;28;20028;-76
2021/04/07 02:58:59;;;;;;;27.40;14.68;;;5.70;84.70;;;;;;5093924;28;20078;-77
2021/04/07 03:01:26;;;;;;;36.45;18.42;;;5.70;84.70;;;;;;5094119;28;20026;-77
2021/04/07 03:03:52;;;;;;;47.45;21.05;;;5.70;84.80;;;;;;5095105;28;20013;-77
2021/04/07 03:06:18;;;;;;;40.28;19.67;;;5.70;85.00;;;;;;5095055;28;20044;-77
2021/04/07 03:08:44;;;;;;;266.17;78.97;;;5.80;85.10;;;;;;5093761;28;20115;-77
2021/04/07 03:11:10;;;;;;;202.45;63.30;;;5.80;85.30;;;;;;5095180;28;20091;-77
2021/04/07 03:13:36;;;;;;;85.90;34.97;;;5.80;85.10;;;;;;5093866;28;20522;-77
2021/04/07 03:16:02;;;;;;;87.68;34.33;;;5.80;85.00;;;;;;5094750;28;20096;-77
2021/04/07 03:18:27;;;;;;;47.67;24.00;;;5.80;84.90;;;;;;5093773;28;20351;-77
2021/04/07 03:20:53;;;;;;;40.55;19.20;;;5.80;84.80;;;;;;5094441;28;20066;-81
2021/04/07 03:23:19;;;;;;;41.28;19.48;;;5.80;84.70;;;;;;5095407;28;20016;-77
2021/04/07 03:25:45;;;;;;;34.25;19.00;;;5.70;84.70;;;;;;5094846;28;20366;-77
2021/04/07 03:28:10;;;;;;;35.75;18.25;;;5.70;85.00;;;;;;5094820;28;20023;-76
2021/04/07 03:30:51;;;;;;;30.33;16.30;;;5.70;85.00;;;;;;5093511;28;20451;-77
2021/04/07 03:33:23;;;;;;;28.15;13.65;;;5.60;85.40;;;;;;5079429;28;20468;-78
2021/04/07 03:35:51;;;;;;;24.50;13.05;;;5.60;85.80;;;;;;5093661;28;20090;-81
2021/04/07 03:38:17;;;;;;;46.22;21.33;;;5.50;85.80;;;;;;5089569;28;20362;-80
2021/04/07 03:40:44;;;;;;;25.20;14.38;;;5.40;87.10;;;;;;5091660;28;20028;-80
2021/04/07 03:43:15;;;;;;;24.27;11.18;;;5.40;87.30;;;;;;5089363;28;20016;-79
2021/04/07 03:45:49;;;;;;;26.15;13.07;;;5.40;87.90;;;;;;5093080;28;20067;-79
2021/04/07 03:48:26;;;;;;;29.75;14.35;;;5.40;88.40;;;;;;5093035;28;20020;-83
2021/04/07 03:50:53;;;;;;;27.50;13.55;;;5.50;89.00;;;;;;5080811;28;20020;-78
2021/04/07 03:53:19;;;;;;;29.77;15.23;;;5.50;89.70;;;;;;5092963;28;20027;-78
2021/04/07 03:55:47;;;;;;;27.13;14.48;;;5.60;89.70;;;;;;5092751;28;20052;-78
2021/04/07 03:58:13;;;;;;;30.70;14.88;;;5.70;89.80;;;;;;5093983;28;20016;-78
2021/04/07 04:00:39;;;;;;;30.48;15.70;;;5.80;89.90;;;;;;5087437;28;20033;-78
2021/04/07 04:03:07;;;;;;;33.00;15.88;;;5.90;90.10;;;;;;5085501;28;20028;-76
2021/04/07 04:05:33;;;;;;;30.65;16.33;;;6.00;90.50;;;;;;5092105;28;20055;-78
2021/04/07 04:07:59;;;;;;;26.38;13.50;;;6.10;90.30;;;;;;5084852;28;20030;-77
2021/04/07 04:10:25;;;;;;;30.05;15.25;;;6.30;90.60;;;;;;5089919;28;20020;-79
2021/04/07 04:12:50;;;;;;;27.92;15.30;;;6.30;90.10;;;;;;5083700;28;20016;-79
2021/04/07 04:15:16;;;;;;;40.58;18.20;;;6.40;90.20;;;;;;5092989;28;20155;-79
2021/04/07 04:17:43;;;;;;;50.30;21.42;;;6.50;90.20;;;;;;5092245;28;20066;-79
2021/04/07 04:20:11;;;;;;;58.67;23.00;;;6.70;90.30;;;;;;5091658;28;20027;-78
2021/04/07 04:22:36;;;;;;;67.60;24.60;;;6.80;90.10;;;;;;5093426;28;20382;-79
2021/04/07 04:25:03;;;;;;;64.88;23.60;;;6.90;90.00;;;;;;5092291;28;20042;-78
2021/04/07 04:27:29;;;;;;;56.55;23.77;;;7.00;89.70;;;;;;5092696;28;20020;-79
2021/04/07 04:29:55;;;;;;;65.15;23.23;;;7.10;89.30;;;;;;5093792;28;20039;-78
2021/04/07 04:32:21;;;;;;;58.25;22.67;;;7.20;89.20;;;;;;5093026;28;20020;-78
2021/04/07 04:34:46;;;;;;;48.20;19.35;;;7.30;88.50;;;;;;5091901;28;20020;-78
2021/04/07 04:37:12;;;;;;;56.38;22.13;;;7.30;88.00;;;;;;5092976;28;20055;-78
2021/04/07 04:39:38;;;;;;;61.03;23.05;;;7.30;86.80;;;;;;5093120;28;20491;-78
2021/04/07 04:42:04;;;;;;;57.05;21.63;;;7.20;86.70;;;;;;5087580;28;20039;-78
2021/04/07 04:44:30;;;;;;;47.60;20.30;;;7.10;87.00;;;;;;5090913;28;20465;-76
2021/04/07 04:46:56;;;;;;;43.10;20.35;;;7.10;87.20;;;;;;5089944;28;20040;-78
2021/04/07 04:49:21;;;;;;;46.28;21.38;;;7.10;87.00;;;;;;5086175;28;20162;-79
2021/04/07 04:51:48;;;;;;;35.92;18.98;;;7.10;87.60;;;;;;5090442;28;20024;-78
2021/04/07 04:54:14;;;;;;;23.42;12.85;;;7.10;87.90;;;;;;5091197;28;20027;-78
2021/04/07 04:56:40;;;;;;;33.00;16.60;;;7.20;88.00;;;;;;5088898;28;20028;-80
2021/04/07 04:59:07;;;;;;;30.45;16.25;;;7.20;88.60;;;;;;5091786;28;20335;-81
2021/04/07 05:01:33;;;;;;;42.88;19.08;;;7.30;89.20;;;;;;5090856;28;20107;-84
2021/04/07 05:04:01;;;;;;;66.18;27.92;;;7.40;88.30;;;;;;5088200;28;20035;-84
2021/04/07 05:06:27;;;;;;;97.03;36.38;;;7.60;88.60;;;;;;5089724;28;20044;-82
2021/04/07 05:08:53;;;;;;;208.73;54.78;;;7.70;88.30;;;;;;5084010;28;20425;-85
2021/04/07 05:11:19;;;;;;;113.47;35.13;;;7.70;88.10;;;;;;5091399;28;20016;-78
2021/04/07 05:13:44;;;;;;;106.97;33.10;;;7.80;87.70;;;;;;5083634;28;20454;-75
2021/04/07 05:16:10;;;;;;;104.50;31.65;;;8.00;87.50;;;;;;5092698;28;20028;-79
2021/04/07 05:18:36;;;;;;;85.63;27.60;;;8.10;86.90;;;;;;5091360;28;20069;-80
2021/04/07 05:21:02;;;;;;;43.17;17.77;;;8.30;87.20;;;;;;5090754;28;20147;-81
2021/04/07 05:23:27;;;;;;;32.10;17.05;;;8.40;86.50;;;;;;5093168;28;20051;-84
2021/04/07 05:25:53;;;;;;;37.40;14.23;;;8.50;86.10;;;;;;5084524;28;20036;-77
2021/04/07 05:28:19;;;;;;;25.48;11.55;;;8.70;86.30;;;;;;5087190;28;20074;-86
2021/04/07 05:31:01;;;;;;;28.42;14.13;;;9.00;86.50;;;;;;5094275;28;20393;-75
2021/04/07 05:33:29;;;;;;;22.45;9.85;;;9.30;85.60;;;;;;5093074;28;20454;-79
2021/04/07 05:35:56;;;;;;;19.67;9.85;;;9.80;85.40;;;;;;5096514;28;20020;-81
2021/04/07 05:38:23;;;;;;;22.83;10.50;;;10.40;82.00;;;;;;5091191;28;20035;-81
2021/04/07 05:40:54;;;;;;;21.52;11.02;;;10.60;80.20;;;;;;5091935;28;20103;-79
2021/04/07 05:43:20;;;;;;;25.08;12.60;;;10.70;77.60;;;;;;5082975;28;20051;-79
2021/04/07 05:45:46;;;;;;;27.52;15.05;;;10.60;77.10;;;;;;5085499;28;20085;-78
2021/04/07 05:48:12;;;;;;;24.83;14.35;;;10.60;76.30;;;;;;5095448;28;20028;-77
2021/04/07 05:50:39;;;;;;;27.77;13.73;;;10.50;76.40;;;;;;5089818;28;20024;-78
2021/04/07 05:53:06;;;;;;;25.17;14.00;;;10.30;74.80;;;;;;5077796;28;20020;-78
2021/04/07 05:55:32;;;;;;;21.20;13.45;;;9.90;74.70;;;;;;5094709;28;20369;-78
2021/04/07 05:58:04;;;;;;;25.02;14.02;;;9.60;74.60;;;;;;5093936;28;21656;-77
2021/04/07 06:00:30;;;;;;;23.88;12.00;;;9.30;75.80;;;;;;5093307;28;20061;-76
2021/04/07 06:03:01;;;;;;;20.42;11.77;;;9.20;76.50;;;;;;5091212;28;20086;-80
2021/04/07 06:05:27;;;;;;;26.92;13.05;;;9.00;77.00;;;;;;5093172;28;20048;-80
2021/04/07 06:07:59;;;;;;;23.70;12.85;;;9.00;77.90;;;;;;5096679;28;20028;-79
2021/04/07 06:10:26;;;;;;;31.45;15.13;;;9.00;77.60;;;;;;5095908;28;20012;-79
2021/04/07 06:12:52;;;;;;;26.60;14.52;;;9.00;78.10;;;;;;5094887;28;20470;-80
2021/04/07 06:15:18;;;;;;;27.45;13.73;;;9.00;78.80;;;;;;5095855;28;20047;-81
2021/04/07 06:20:21;;;;;;;29.10;15.10;;;9.10;79.00;;;;;;5096030;28;20016;-80
2021/04/07 06:22:47;;;;;;;65.45;27.10;;;9.10;78.90;;;;;;5097382;28;20020;-79
2021/04/07 06:25:13;;;;;;;60.47;25.95;;;9.10;79.10;;;;;;5095600;28;20027;-79
2021/04/07 06:27:39;;;;;;;37.92;18.27;;;9.30;79.30;;;;;;5094736;28;20031;-80
2021/04/07 06:30:06;;;;;;;24.92;12.90;;;9.40;79.70;;;;;;5096417;28;20020;-79
2021/04/07 06:32:32;;;;;;;22.65;13.40;;;9.50;78.80;;;;;;5094465;28;20032;-79
2021/04/07 06:34:57;;;;;;;24.15;14.85;;;9.60;78.50;;;;;;5095809;28;20028;-80
2021/04/07 06:37:23;;;;;;;28.85;15.35;;;9.70;78.20;;;;;;5081810;28;20025;-78
2021/04/07 06:39:49;;;;;;;28.48;14.43;;;9.80;78.10;;;;;;5094477;28;20019;-80
2021/04/07 06:42:15;;;;;;;18.10;11.75;;;10.00;78.20;;;;;;5094989;28;20454;-80
2021/04/07 06:44:42;;;;;;;23.42;12.27;;;10.20;78.10;;;;;;5090095;28;20207;-80
2021/04/07 06:47:09;;;;;;;21.27;12.68;;;10.50;77.90;;;;;;5090857;28;20405;-80
2021/04/07 06:49:35;;;;;;;28.08;16.75;;;10.90;77.30;;;;;;5074802;28;20016;-80
2021/04/07 06:52:06;;;;;;;26.60;16.30;;;11.40;76.60;;;;;;5075887;28;20028;-80
2021/04/07 06:54:33;;;;;;;37.63;19.90;;;11.80;75.30;;;;;;5085389;28;20153;-80
2021/04/07 06:56:59;;;;;;;28.40;15.15;;;12.10;74.00;;;;;;5092312;28;20023;-80
2021/04/07 06:59:26;;;;;;;26.02;16.00;;;12.30;72.60;;;;;;5074204;28;20013;-80
2021/04/07 07:01:52;;;;;;;30.00;17.70;;;12.40;70.90;;;;;;5094363;28;20066;-82
2021/04/07 07:04:18;;;;;;;29.73;17.95;;;12.30;70.30;;;;;;5095237;28;20354;-80
2021/04/07 07:06:46;;;;;;;41.33;24.90;;;12.20;69.40;;;;;;5095784;28;20036;-80
2021/04/07 07:09:18;;;;;;;24.73;16.23;;;12.00;69.10;;;;;;5095184;28;20035;-79
2021/04/07 07:11:53;;;;;;;25.77;15.23;;;11.90;69.20;;;;;;5083316;28;20362;-80
2021/04/07 07:14:20;;;;;;;;;;;11.90;69.90;;;;;;5095070;28;20022;-80
2021/04/07 07:16:47;;;;;;;62.85;25.70;;;11.90;70.00;;;;;;5084852;28;19901;-80
2021/04/07 07:19:30;;;;;;;67.50;29.92;;;12.00;69.10;;;;;;5078118;28;20020;-80
2021/04/07 07:21:58;;;;;;;66.82;29.58;;;12.00;68.80;;;;;;5095272;28;20471;-80
2021/04/07 07:24:31;;;;;;;54.83;25.60;;;12.00;68.60;;;;;;5095386;28;20020;-80
2021/04/07 07:26:58;;;;;;;48.75;23.00;;;12.00;68.90;;;;;;5083178;28;20526;-80
2021/04/07 07:29:26;;;;;;;82.38;35.95;;;12.10;69.00;;;;;;5080549;28;20096;-80
2021/04/07 07:32:04;;;;;;;84.07;37.85;;;12.20;68.50;;;;;;5094144;28;20058;-80
2021/04/07 07:34:31;;;;;;;96.72;39.13;;;12.30;68.40;;;;;;5091707;28;20032;-80
2021/04/07 07:36:59;;;;;;;95.55;40.67;;;12.40;67.80;;;;;;5074470;28;20016;-80
2021/04/07 07:39:27;;;;;;;89.07;39.58;;;12.30;67.20;;;;;;5076042;28;20032;-80
2021/04/07 07:41:57;;;;;;;81.40;33.28;;;12.30;67.30;;;;;;5086062;28;20027;-80
2021/04/07 07:44:24;;;;;;;91.40;41.65;;;12.40;67.40;;;;;;5073684;28;20039;-80
2021/04/07 07:46:59;;;;;;;209.00;81.07;;;12.50;67.70;;;;;;5074687;28;20025;-79
2021/04/07 07:49:25;;;;;;;138.05;57.47;;;12.60;67.00;;;;;;5084202;28;20074;-80
2021/04/07 07:51:51;;;;;;;130.60;54.00;;;12.70;66.60;;;;;;5077622;28;20106;-80
2021/04/07 07:54:19;;;;;;;72.00;34.17;;;12.80;66.30;;;;;;5074539;28;20416;-80
2021/04/07 07:56:45;;;;;;;62.10;30.67;;;12.70;66.00;;;;;;5074172;28;20504;-80
2021/04/07 07:59:11;;;;;;;68.75;30.45;;;12.60;65.80;;;;;;5074288;28;20017;-80
2021/04/07 08:01:45;;;;;;;124.65;47.53;;;12.60;66.40;;;;;;5086719;28;20047;-80
2021/04/07 08:04:11;;;;;;;48.40;24.83;;;12.70;66.30;;;;;;5078689;28;20027;-80
2021/04/07 08:06:37;;;;;;;36.70;21.20;;;12.70;65.80;;;;;;5083078;28;20446;-80
2021/04/07 08:09:04;;;;;;;32.78;19.05;;;12.60;65.70;;;;;;5072514;28;20470;-80
2021/04/07 08:11:30;;;;;;;28.20;17.75;;;12.60;65.70;;;;;;5074077;28;20020;-80
2021/04/07 08:13:58;;;;;;;27.65;14.65;;;12.60;65.60;;;;;;5075489;28;20020;-80
2021/04/07 08:16:26;;;;;;;19.42;11.85;;;12.60;65.40;;;;;;5094176;28;20035;-80
2021/04/07 08:18:53;;;;;;;24.98;13.00;;;12.60;65.20;;;;;;5079758;28;20019;-80
2021/04/07 08:21:21;;;;;;;24.27;12.88;;;12.60;64.70;;;;;;5078916;28;20027;-80
2021/04/07 08:24:00;;;;;;;19.05;11.10;;;12.40;65.00;;;;;;5080323;28;20419;-80
2021/04/07 08:26:30;;;;;;;20.17;11.02;;;12.50;65.50;;;;;;5073147;28;20074;-80
2021/04/07 08:28:56;;;;;;;75.15;39.83;;;12.70;65.60;;;;;;5073636;28;20021;-81
2021/04/07 08:31:25;;;;;;;78.72;37.95;;;12.80;65.20;;;;;;5086308;28;20020;-80
2021/04/07 08:33:52;;;;;;;74.90;35.22;;;12.80;65.20;;;;;;5084125;28;20023;-79
2021/04/07 08:36:21;;;;;;;65.97;34.25;;;12.90;65.00;;;;;;5093323;28;20019;-80
2021/04/07 08:38:46;;;;;;;71.07;33.13;;;12.90;65.30;;;;;;5084182;28;20021;-81
2021/04/07 08:41:17;;;;;;;75.68;35.22;;;13.00;65.10;;;;;;5087634;28;20069;-78
2021/04/07 08:43:44;;;;;;;68.82;33.15;;;12.90;64.60;;;;;;5072592;28;20030;-80
2021/04/07 08:46:20;;;;;;;77.05;35.40;;;12.70;64.70;;;;;;5084305;28;20415;-79
2021/04/07 08:48:46;;;;;;;86.38;37.30;;;12.70;64.90;;;;;;5077992;28;20024;-80
2021/04/07 08:51:14;;;;;;;97.80;37.28;;;12.70;65.00;;;;;;5081884;28;20055;-80
2021/04/07 08:53:47;;;;;;;62.28;31.67;;;12.70;65.20;;;;;;5072046;28;20115;-81
2021/04/07 08:56:15;;;;;;;61.13;31.05;;;12.70;65.10;;;;;;5072035;28;20035;-81
2021/04/07 08:58:52;;;;;;;62.85;31.33;;;12.90;64.90;;;;;;5073399;28;20021;-81
2021/04/07 09:01:23;;;;;;;58.78;27.35;;;13.00;64.60;;;;;;5073076;28;20021;-81
2021/04/07 09:03:49;;;;;;;52.58;27.45;;;13.00;64.60;;;;;;5071646;28;20020;-81
2021/04/07 09:06:15;;;;;;;56.47;30.90;;;13.10;64.50;;;;;;5080048;28;20130;-81
2021/04/07 09:08:55;;;;;;;65.75;36.25;;;13.10;64.00;;;;;;5078821;28;20024;-81
2021/04/07 09:11:29;;;;;;;70.25;36.47;;;12.90;63.70;;;;;;5073448;28;20019;-80
2021/04/07 09:14:04;;;;;;;70.95;35.53;;;12.70;63.90;;;;;;5073254;28;20032;-81
2021/04/07 09:16:35;;;;;;;65.13;33.50;;;12.60;64.10;;;;;;5085199;28;20082;-81
2021/04/07 09:19:24;;;;;;;54.60;28.80;;;12.50;64.50;;;;;;5072951;28;20017;-81
2021/04/07 09:22:06;;;;;;;60.78;33.25;;;12.40;65.20;;;;;;5072208;28;20024;-81
2021/04/07 09:24:41;;;;;;;51.75;26.92;;;12.30;64.70;;;;;;5074273;28;20128;-81
2021/04/07 09:27:24;;;;;;;51.38;26.48;;;12.20;64.60;;;;;;5073028;28;20450;-81
2021/04/07 09:29:50;;;;;;;41.75;22.98;;;12.10;64.80;;;;;;5072225;28;20021;-80
2021/04/07 09:32:17;;;;;;;36.00;18.63;;;11.90;65.20;;;;;;5088838;28;20024;-80
2021/04/07 09:34:43;;;;;;;30.63;16.48;;;11.80;65.70;;;;;;5072864;28;20455;-80
2021/04/07 09:37:14;;;;;;;29.13;16.42;;;11.80;66.00;;;;;;5071698;28;20516;-81
2021/04/07 09:39:40;;;;;;;29.05;14.23;;;11.80;66.50;;;;;;5076583;28;20369;-80
2021/04/07 09:42:08;;;;;;;20.48;11.57;;;11.90;67.00;;;;;;5092236;28;20027;-81
2021/04/07 09:44:34;;;;;;;16.40;10.93;;;12.00;66.90;;;;;;5095582;28;20120;-81
2021/04/07 09:47:01;;;;;;;17.20;10.07;;;12.00;67.00;;;;;;5073817;28;20020;-81
2021/04/07 09:49:27;;;;;;;16.73;9.82;;;12.10;66.90;;;;;;5073101;28;20078;-81
2021/04/07 09:51:54;;;;;;;15.32;9.57;;;12.30;66.90;;;;;;5071417;28;20069;-80
2021/04/07 09:54:24;;;;;;;12.93;8.40;;;12.30;66.60;;;;;;5072756;28;20448;-80
2021/04/07 09:56:57;;;;;;;18.60;9.15;;;12.40;66.30;;;;;;5072323;28;20025;-81
2021/04/07 09:59:55;;;;;;;16.98;8.75;;;12.40;65.90;;;;;;5093769;28;20020;-79
2021/04/07 10:02:25;;;;;;;15.70;8.90;;;12.40;66.00;;;;;;5073820;28;20044;-80
2021/04/07 10:04:53;;;;;;;14.13;8.88;;;12.50;66.20;;;;;;5081770;28;20055;-80
2021/04/07 10:07:24;;;;;;;12.48;9.18;;;12.50;65.90;;;;;;5074509;28;20459;-80
2021/04/07 10:09:51;;;;;;;15.00;9.50;;;12.60;65.80;;;;;;5073181;28;20028;-80
2021/04/07 10:12:22;;;;;;;14.38;9.32;;;12.70;65.80;;;;;;5090053;28;20016;-79
2021/04/07 10:14:53;;;;;;;15.27;9.18;;;12.90;65.70;;;;;;5091820;28;20028;-80
2021/04/07 10:17:21;;;;;;;14.10;9.55;;;13.10;65.30;;;;;;5074946;28;20072;-81
2021/04/07 10:19:48;;;;;;;14.63;8.98;;;13.30;65.00;;;;;;5076038;28;20086;-79
2021/04/07 10:22:21;;;;;;;14.50;9.02;;;13.30;64.30;;;;;;5075008;28;20462;-80
2021/04/07 10:24:48;;;;;;;16.77;10.02;;;13.30;64.20;;;;;;5081619;28;20462;-80
2021/04/07 10:27:21;;;;;;;16.13;9.90;;;13.30;63.80;;;;;;5083123;28;20060;-80
2021/04/07 10:29:48;;;;;;;13.85;8.50;;;13.20;63.70;;;;;;5075687;28;20024;-80
2021/04/07 10:32:18;;;;;;;15.63;9.23;;;13.10;63.80;;;;;;5086980;28;20054;-80
2021/04/07 10:34:45;;;;;;;15.00;9.15;;;13.10;63.90;;;;;;5091466;28;20401;-79
2021/04/07 10:37:12;;;;;;;16.33;9.93;;;13.10;63.90;;;;;;5085642;28;20048;-80
2021/04/07 10:39:40;;;;;;;20.00;9.50;;;13.00;64.00;;;;;;5094955;28;20020;-79
2021/04/07 10:42:15;;;;;;;15.25;8.95;;;13.00;64.10;;;;;;5096414;28;20024;-79
2021/04/07 10:44:41;;;;;;;16.67;10.30;;;13.00;63.90;;;;;;5095808;28;20473;-80
2021/04/07 10:47:17;;;;;;;18.17;10.38;;;13.00;64.50;;;;;;5080522;28;20025;-80
2021/04/07 10:49:53;;;;;;;17.73;9.48;;;13.30;64.60;;;;;;5083934;28;20020;-80
2021/04/07 10:52:47;;;;;;;16.17;9.32;;;13.70;64.30;;;;;;5080649;28;20016;-80
2021/04/07 10:55:24;;;;;;;15.15;9.63;;;13.90;63.10;;;;;;5094829;28;20078;-80
2021/04/07 10:57:54;;;;;;;13.95;9.98;;;13.90;62.90;;;;;;5082944;28;20024;-80
2021/04/07 11:00:40;;;;;;;15.60;9.68;;;14.30;63.00;;;;;;5094438;28;20031;-81
2021/04/07 11:03:09;;;;;;;;;;;14.60;62.00;;;;;;5091513;28;20454;-80
2021/04/07 11:05:45;;;;;;;16.10;10.00;;;14.80;62.10;;;;;;5075077;28;20009;-80
2021/04/07 11:08:14;;;;;;;17.73;10.10;;;14.70;60.70;;;;;;5074345;28;20032;-79
2021/04/07 11:10:50;;;;;;;18.90;11.68;;;14.40;60.20;;;;;;5075322;28;20024;-80
2021/04/07 11:13:19;;;;;;;19.02;11.50;;;14.10;60.50;;;;;;5075065;28;20149;-79
2021/04/07 11:15:45;;;;;;;19.23;12.23;;;13.80;61.30;;;;;;5073932;28;20024;-80
2021/04/07 11:18:11;;;;;;;24.73;15.18;;;13.60;61.50;;;;;;5074313;28;20048;-80
2021/04/07 11:20:39;;;;;;;32.95;17.35;;;13.30;61.60;;;;;;5089205;28;20416;-81
2021/04/07 11:23:05;;;;;;;26.50;15.75;;;12.80;61.60;;;;;;5073752;28;20070;-80
2021/04/07 11:25:32;;;;;;;25.02;15.55;;;12.20;62.40;;;;;;5075306;28;20052;-80
2021/04/07 11:27:58;;;;;;;24.45;14.30;;;11.70;63.40;;;;;;5093724;28;20008;-80
2021/04/07 11:30:27;;;;;;;22.00;12.30;;;11.20;64.30;;;;;;5095307;28;20048;-80
2021/04/07 11:32:57;;;;;;;17.92;10.65;;;10.90;65.20;;;;;;5091576;28;20013;-79
2021/04/07 11:35:36;;;;;;;18.67;11.20;;;10.50;65.80;;;;;;5074087;28;20423;-79
2021/04/07 11:38:05;;;;;;;15.55;9.77;;;10.30;66.50;;;;;;5074816;28;20439;-79
2021/04/07 11:45:33;;;;;;;12.52;6.63;;;9.90;68.20;;;;;;5074761;28;20503;-79
2021/04/07 11:47:59;;;;;;;13.38;6.60;;;9.90;68.70;;;;;;5074683;28;20020;-78
2021/04/07 11:50:25;;;;;;;10.38;6.15;;;9.80;68.80;;;;;;5074252;28;20024;-79
2021/04/07 11:52:51;;;;;;;10.80;6.13;;;9.70;69.30;;;;;;5073457;28;20017;-79
2021/04/07 11:55:17;;;;;;;10.38;6.38;;;9.80;70.20;;;;;;5088863;28;20031;-80
2021/04/07 11:57:43;;;;;;;13.43;5.93;;;10.00;70.30;;;;;;5083521;28;20024;-79
2021/04/07 12:00:10;;;;;;;8.38;5.15;;;10.20;69.90;;;;;;5094685;28;20020;-79
2021/04/07 12:02:39;;;;;;;13.20;6.07;;;10.50;69.70;;;;;;5080684;28;20396;-79
2021/04/07 12:05:05;;;;;;;10.80;5.25;;;10.60;68.80;;;;;;5080147;28;20126;-79
2021/04/07 12:07:31;;;;;;;9.85;5.20;;;10.70;68.10;;;;;;5078964;28;20442;-79
2021/04/07 12:09:56;;;;;;;12.38;5.25;;;10.70;67.40;;;;;;5082411;28;20016;-79
2021/04/07 12:12:22;;;;;;;10.07;5.47;;;10.60;67.20;;;;;;5076347;28;20032;-79
2021/04/07 12:14:48;;;;;;;12.45;6.45;;;10.40;67.00;;;;;;5085725;28;20016;-78
2021/04/07 12:17:13;;;;;;;11.80;6.50;;;10.20;67.20;;;;;;5073517;28;20039;-79
2021/04/07 12:19:39;;;;;;;11.85;6.75;;;10.00;67.90;;;;;;5072739;28;20165;-74
2021/04/07 12:22:05;;;;;;;13.38;7.03;;;9.80;68.20;;;;;;5086158;28;20027;-81
2021/04/07 12:24:31;;;;;;;12.68;7.35;;;9.60;68.40;;;;;;5078975;28;20020;-76
2021/04/07 12:26:57;;;;;;;13.60;8.85;;;9.40;68.80;;;;;;5091905;28;20488;-76
2021/04/07 12:29:24;;;;;;;15.27;10.38;;;9.20;69.90;;;;;;5093042;28;20012;-75
2021/04/07 12:31:49;;;;;;;21.63;9.88;;;8.90;69.70;;;;;;5093432;28;20377;-75
2021/04/07 12:34:16;;;;;;;16.52;10.52;;;8.70;70.40;;;;;;5091474;28;20027;-76
2021/04/07 12:36:42;;;;;;;15.77;9.73;;;8.60;71.10;;;;;;5090492;28;20024;-75
2021/04/07 12:39:09;;;;;;;13.98;8.65;;;8.50;71.70;;;;;;5091811;28;20069;-77
2021/04/07 12:44:04;;;;;;;14.35;8.52;;;8.30;72.70;;;;;;5093159;28;20362;-76
2021/04/07 12:46:30;;;;;;;18.45;8.55;;;8.20;73.10;;;;;;5092323;28;20482;-75
2021/04/07 12:48:55;;;;;;;12.90;8.32;;;8.00;73.30;;;;;;5092740;28;20024;-75
2021/04/07 12:51:23;;;;;;;16.40;9.48;;;7.80;73.70;;;;;;5093625;28;20446;-75